Ilam Airport

Airport
ICAO code: 
OICI
IATA Code: 
IIL
Summary
ICAO Region: 
MID
Territory: 
Location: 
Ilam, Ilam Province
Serving: 
Ilam
Elevation: 
4404 ft
Coordinates: 
Aerial View: 
33° 35' 11.481" N, 46° 23' 57.806" E
Metar
Observation
OICI 262000Z 29006KT 8000 NSC 21/07 Q1013 A2993
Station
Ilam
Date/Time
2022-06-26 20:00:00
Wind direction
290°
Wind speed
06 kts
Lowest cloud amount
nil significant cloud
Temperature
21°C
Dew point
7°C
Humidity
40%
QNH
1013 hPa
Weather condition
n/a

Domestic airport 6km south of the centre of Ilam, Iran.

Climatology

Warm Desert climate (Köppen climate classification BWh).

Runways

Designator Length Width Surface Rops
14/32 2799 45 ASP No/No
Airport map: 
Aerial View: 

SKYbrary Partners:

Safety knowledge contributed by: